Terminal Aerodrome Forecast
Issued by NWS Wakefield, VA

Home | Current Version | Previous Version | Text Only | Print | Product List | Glossary On
Versions: 1 2 3 4 5 6 7 8 9 10 11 12 13 14
700
FTUS41 KAKQ 051138
TAFECG
TAF
KECG 051138Z 0512/0612 34012KT 4SM -RA BR OVC005
     FM051400 34007KT P6SM VCSH BKN007
     FM051700 34009KT P6SM VCSH BKN020
     FM052000 35009KT P6SM SCT050 BKN100
     FM060700 02006KT P6SM BKN050=

USA.gov is the U.S. government's official web portal to all federal, state and local government web resources and services.